Time;durP1;ratioP1;P1;durP2;ratioP2;P2;SDS_P1;SDS_P2;PMS_P1;PMS_P2;Temp;Humidity;BMP_temperature;BMP_pressure;BME280_temperature;BME280_humidity;BME280_pressure;Samples;Min_cycle;Max_cycle;Signal;HPM_P1;HPM_P2
2022/06/08 00:00:12;;;;;;;1.95;0.90;;;10.80;99.90;;;;;;4992487;28;20057;-86
2022/06/08 00:02:40;;;;;;;1.40;1.00;;;10.00;99.90;;;;;;4993402;28;20050;-85
2022/06/08 00:05:07;;;;;;;1.52;0.80;;;10.10;99.90;;;;;;4992622;28;20057;-86
2022/06/08 00:07:32;;;;;;;4.47;1.00;;;10.00;99.90;;;;;;4991951;28;20058;-86
2022/06/08 00:09:59;;;;;;;1.92;1.10;;;10.50;99.90;;;;;;4992256;28;20096;-86
2022/06/08 00:12:25;;;;;;;3.47;0.95;;;10.00;99.90;;;;;;4993178;28;20034;-87
2022/06/08 00:14:51;;;;;;;2.67;1.00;;;9.90;99.90;;;;;;4992105;28;20133;-86
2022/06/08 00:17:18;;;;;;;2.72;1.00;;;9.60;99.90;;;;;;4992902;28;20169;-86
2022/06/08 00:19:44;;;;;;;2.88;0.90;;;10.60;99.90;;;;;;4993294;28;20046;-86
2022/06/08 00:22:11;;;;;;;3.25;1.02;;;9.90;99.90;;;;;;4992024;28;20400;-87
2022/06/08 00:24:37;;;;;;;2.20;1.00;;;10.70;99.90;;;;;;4993133;28;20050;-85
2022/06/08 00:27:04;;;;;;;2.25;0.85;;;9.90;99.90;;;;;;4994411;28;20140;-85
2022/06/08 00:29:29;;;;;;;2.00;1.10;;;9.80;99.90;;;;;;4993561;28;20074;-86
2022/06/08 00:31:55;;;;;;;2.38;1.10;;;10.40;99.90;;;;;;4992427;28;20152;-87
2022/06/08 00:34:21;;;;;;;3.13;0.90;;;9.80;99.90;;;;;;4994017;28;20436;-86
2022/06/08 00:36:47;;;;;;;1.08;0.98;;;9.80;99.90;;;;;;4994213;28;20081;-87
2022/06/08 00:39:13;;;;;;;1.20;0.80;;;9.90;99.90;;;;;;4992094;28;20053;-86
2022/06/08 00:41:44;;;;;;;4.28;0.95;;;10.20;99.90;;;;;;4997273;28;20057;-86
2022/06/08 00:44:24;;;;;;;0.88;0.70;;;9.70;99.90;;;;;;4995964;28;20129;-86
2022/06/08 00:46:52;;;;;;;1.63;0.80;;;9.70;99.90;;;;;;4995999;28;20038;-87
2022/06/08 00:49:23;;;;;;;0.88;0.70;;;9.80;99.90;;;;;;4995438;28;20050;-86
2022/06/08 00:51:52;;;;;;;0.93;0.73;;;9.70;99.90;;;;;;4996430;28;20129;-87
2022/06/08 00:54:33;;;;;;;2.65;0.73;;;9.60;99.90;;;;;;4995655;28;20137;-87
2022/06/08 00:57:11;;;;;;;1.00;0.90;;;9.60;99.90;;;;;;4995147;28;20054;-85
2022/06/08 00:59:39;;;;;;;2.92;1.08;;;9.60;99.90;;;;;;4995877;28;20045;-85
2022/06/08 01:02:05;;;;;;;1.67;1.00;;;9.60;99.90;;;;;;4981115;28;20241;-86
2022/06/08 01:04:31;;;;;;;2.40;0.90;;;9.90;99.90;;;;;;4987980;28;20054;-85
2022/06/08 01:06:59;;;;;;;1.92;1.02;;;9.50;99.90;;;;;;4995454;28;20050;-86
2022/06/08 01:09:32;;;;;;;1.50;1.08;;;9.70;99.90;;;;;;4995009;28;20118;-86
2022/06/08 01:12:00;;;;;;;1.23;0.80;;;9.50;99.90;;;;;;4994570;28;20583;-86
2022/06/08 01:14:27;;;;;;;1.08;0.70;;;9.80;99.90;;;;;;4994674;28;20050;-86
2022/06/08 01:17:06;;;;;;;1.10;0.77;;;9.50;99.90;;;;;;4995420;28;20216;-86
2022/06/08 01:19:40;;;;;;;1.15;0.70;;;9.50;99.90;;;;;;4996455;28;20042;-87
2022/06/08 01:22:11;;;;;;;2.63;0.80;;;9.30;99.90;;;;;;4994484;28;20042;-86
2022/06/08 01:24:37;;;;;;;1.20;0.90;;;9.40;99.90;;;;;;4995047;28;20054;-87
2022/06/08 01:27:23;;;;;;;1.75;0.90;;;9.40;99.90;;;;;;4995990;28;20039;-86
2022/06/08 01:30:08;;;;;;;;;;;9.30;99.90;;;;;;4978230;28;20058;-86
2022/06/08 01:33:04;;;;;;;3.55;1.20;;;9.30;99.90;;;;;;4992397;28;19922;-86
2022/06/08 01:35:50;;;;;;;1.45;0.95;;;9.30;99.90;;;;;;4993729;28;20058;-87
2022/06/08 01:38:49;;;;;;;3.00;1.25;;;9.30;99.90;;;;;;4976888;28;20171;-86
2022/06/08 01:41:46;;;;;;;1.25;0.80;;;9.30;99.90;;;;;;4993427;28;20050;-86
2022/06/08 01:47:47;;;;;;;1.20;0.90;;;9.20;99.90;;;;;;4969057;28;20101;-86
2022/06/08 01:50:34;;;;;;;1.75;1.20;;;9.60;99.90;;;;;;4978592;28;20081;-86
2022/06/08 01:53:11;;;;;;;1.92;0.80;;;9.30;99.90;;;;;;4979035;28;20090;-87
2022/06/08 01:55:53;;;;;;;1.88;0.90;;;9.10;99.90;;;;;;4994866;28;20089;-87
2022/06/08 01:58:22;;;;;;;1.35;0.80;;;9.50;99.90;;;;;;4995098;28;20515;-86
2022/06/08 02:01:32;;;;;;;1.13;0.90;;;9.20;99.90;;;;;;4977183;28;20054;-86
2022/06/08 02:04:25;;;;;;;1.60;0.90;;;9.20;99.90;;;;;;4960659;28;20048;-86
2022/06/08 02:07:29;;;;;;;1.42;0.93;;;9.40;99.90;;;;;;4994103;28;20058;-85
2022/06/08 02:10:05;;;;;;;1.60;0.80;;;9.10;99.90;;;;;;4994216;28;20034;-86
2022/06/08 02:12:34;;;;;;;1.98;0.90;;;9.10;99.90;;;;;;4994336;28;20043;-86
2022/06/08 02:15:19;;;;;;;1.00;0.90;;;9.10;99.90;;;;;;4993283;28;20043;-86
2022/06/08 02:17:54;;;;;;;1.60;0.88;;;9.10;99.90;;;;;;4994560;28;20054;-86
2022/06/08 02:20:34;;;;;;;0.93;0.60;;;9.80;99.90;;;;;;4993659;28;20050;-86
2022/06/08 02:23:13;;;;;;;1.23;0.70;;;9.00;99.90;;;;;;4977700;28;20043;-86
2022/06/08 02:26:03;;;;;;;1.63;0.80;;;9.10;99.90;;;;;;4993603;28;20058;-86
2022/06/08 02:28:39;;;;;;;1.15;0.80;;;9.00;99.90;;;;;;4993718;28;20089;-86
2022/06/08 02:31:24;;;;;;;0.80;0.60;;;9.00;99.90;;;;;;4994503;28;20042;-85
2022/06/08 02:36:52;;;;;;;1.20;0.68;;;8.90;99.90;;;;;;4994694;28;20038;-86
2022/06/08 02:39:25;;;;;;;0.90;0.63;;;9.00;99.90;;;;;;4993369;28;20165;-86
2022/06/08 02:41:55;;;;;;;1.77;0.80;;;8.90;99.90;;;;;;4993841;28;20054;-85
2022/06/08 02:44:26;;;;;;;1.42;0.85;;;9.40;99.90;;;;;;4993430;28;20442;-85
2022/06/08 02:46:52;;;;;;;2.22;0.93;;;9.60;99.90;;;;;;4994169;28;20054;-86
2022/06/08 02:49:18;;;;;;;1.33;0.95;;;9.00;99.90;;;;;;4993763;28;20043;-86
2022/06/08 02:51:48;;;;;;;1.95;1.00;;;9.00;99.90;;;;;;4993641;28;20073;-85
2022/06/08 02:54:21;;;;;;;1.60;0.90;;;8.90;99.90;;;;;;4992835;28;20050;-86
2022/06/08 02:56:59;;;;;;;3.70;0.95;;;9.00;99.90;;;;;;4994136;28;20042;-86
2022/06/08 02:59:40;;;;;;;1.23;0.80;;;9.10;99.90;;;;;;4993108;28;20413;-86
2022/06/08 03:02:18;;;;;;;1.35;0.73;;;9.00;99.90;;;;;;4992587;28;20097;-86
2022/06/08 03:05:13;;;;;;;0.95;0.75;;;9.00;99.90;;;;;;4993090;28;20046;-86
2022/06/08 03:07:48;;;;;;;0.95;0.70;;;9.10;99.90;;;;;;4975126;28;20066;-86
2022/06/08 03:10:15;;;;;;;0.85;0.73;;;9.10;99.90;;;;;;4981306;28;20050;-85
2022/06/08 03:12:54;;;;;;;0.85;0.70;;;9.00;99.90;;;;;;4975783;28;20156;-85
2022/06/08 03:15:25;;;;;;;1.25;0.82;;;9.10;99.90;;;;;;4976544;28;20093;-86
2022/06/08 03:17:51;;;;;;;0.90;0.80;;;9.10;99.90;;;;;;4991530;28;20061;-86
2022/06/08 03:20:20;;;;;;;1.88;1.13;;;8.90;99.90;;;;;;4959925;28;20109;-86
2022/06/08 03:22:46;;;;;;;1.77;1.00;;;9.90;99.90;;;;;;4975582;28;20042;-85
2022/06/08 03:25:13;;;;;;;1.13;0.80;;;9.20;99.90;;;;;;4975660;28;20117;-86
2022/06/08 03:27:39;;;;;;;3.45;1.27;;;9.90;99.90;;;;;;4975400;28;20431;-86
2022/06/08 03:30:06;;;;;;;1.38;0.90;;;9.00;99.90;;;;;;4975355;28;20050;-85
2022/06/08 03:32:32;;;;;;;1.13;0.80;;;9.00;99.90;;;;;;4975617;28;20057;-86
2022/06/08 03:34:58;;;;;;;1.10;0.80;;;9.00;99.90;;;;;;4991764;28;20046;-86
2022/06/08 03:37:24;;;;;;;1.27;0.98;;;9.10;99.90;;;;;;4959477;28;20122;-85
2022/06/08 03:39:50;;;;;;;0.93;0.60;;;9.10;99.90;;;;;;4991214;28;20489;-87
2022/06/08 03:42:16;;;;;;;2.03;0.90;;;9.10;99.90;;;;;;4975759;28;20086;-87
2022/06/08 03:44:42;;;;;;;1.75;0.63;;;9.80;99.90;;;;;;4983072;28;20489;-86
2022/06/08 03:47:24;;;;;;;1.05;0.70;;;8.90;99.90;;;;;;4992327;28;20099;-86
2022/06/08 03:49:56;;;;;;;2.78;0.82;;;9.00;99.90;;;;;;4993210;28;20035;-87
2022/06/08 03:52:26;;;;;;;1.13;0.70;;;9.20;99.90;;;;;;4993029;28;20061;-86
2022/06/08 03:54:57;;;;;;;1.20;0.80;;;9.00;99.90;;;;;;4993400;28;20520;-86
2022/06/08 03:57:24;;;;;;;2.35;1.00;;;9.00;99.90;;;;;;4992209;28;20042;-85
2022/06/08 03:59:53;;;;;;;1.20;0.90;;;9.70;99.90;;;;;;4976591;28;20421;-86
2022/06/08 04:02:19;;;;;;;1.48;0.90;;;9.00;99.90;;;;;;4995031;28;20046;-87
2022/06/08 04:04:45;;;;;;;1.98;0.90;;;9.50;99.90;;;;;;4993924;28;20054;-86
2022/06/08 04:07:11;;;;;;;1.00;0.70;;;9.20;99.90;;;;;;4976945;28;20148;-85
2022/06/08 04:09:37;;;;;;;1.33;0.90;;;9.00;99.90;;;;;;4992421;28;20069;-86
2022/06/08 04:12:03;;;;;;;2.63;1.20;;;9.30;99.90;;;;;;4993210;28;20069;-85
2022/06/08 04:14:30;;;;;;;2.58;1.30;;;9.20;99.90;;;;;;4992469;28;20054;-86
2022/06/08 04:16:55;;;;;;;1.65;1.00;;;9.30;99.90;;;;;;4993240;28;20050;-86
2022/06/08 04:19:24;;;;;;;1.63;1.10;;;9.20;99.90;;;;;;4993505;28;20050;-86
2022/06/08 04:21:53;;;;;;;1.70;1.30;;;9.30;99.90;;;;;;4991690;28;20034;-86
2022/06/08 04:24:20;;;;;;;1.73;0.90;;;9.50;99.90;;;;;;4992020;28;20047;-85
2022/06/08 04:26:47;;;;;;;1.70;1.00;;;10.10;99.90;;;;;;4992965;28;20126;-85
2022/06/08 04:29:13;;;;;;;2.78;1.30;;;9.70;99.90;;;;;;4993128;28;20093;-85
2022/06/08 04:31:39;;;;;;;1.58;1.00;;;9.60;99.90;;;;;;4993219;28;20038;-85
2022/06/08 04:34:08;;;;;;;2.33;1.08;;;10.00;99.90;;;;;;4991857;28;20084;-86
2022/06/08 04:36:35;;;;;;;2.80;1.42;;;9.80;99.90;;;;;;4992861;28;20038;-86
2022/06/08 04:39:04;;;;;;;6.88;2.70;;;9.90;99.90;;;;;;4991973;28;20062;-85
2022/06/08 04:41:30;;;;;;;2.95;1.83;;;10.10;99.90;;;;;;4990291;28;20125;-85
2022/06/08 04:43:56;;;;;;;5.25;2.60;;;10.20;99.90;;;;;;4993037;28;20074;-87
2022/06/08 04:46:22;;;;;;;1.98;1.33;;;10.30;99.90;;;;;;4991867;28;20080;-85
2022/06/08 04:48:47;;;;;;;4.55;1.70;;;10.40;99.90;;;;;;4975594;28;20121;-86
2022/06/08 04:51:15;;;;;;;1.95;1.17;;;10.50;99.90;;;;;;4992037;28;20050;-86
2022/06/08 04:53:43;;;;;;;1.65;1.15;;;10.70;99.90;;;;;;4992020;28;20054;-85
2022/06/08 04:56:09;;;;;;;2.90;1.48;;;10.80;99.90;;;;;;4992917;28;20076;-88
2022/06/08 04:58:35;;;;;;;2.92;1.25;;;11.00;99.90;;;;;;4991130;28;20136;-85
2022/06/08 05:01:02;;;;;;;4.20;1.92;;;11.10;99.90;;;;;;4993070;28;20057;-85
2022/06/08 05:03:29;;;;;;;3.92;2.15;;;11.10;99.90;;;;;;4975537;28;20181;-85
2022/06/08 05:05:56;;;;;;;4.38;2.08;;;11.30;99.90;;;;;;4991828;28;20070;-85
2022/06/08 05:08:23;;;;;;;2.42;1.55;;;11.40;99.90;;;;;;4991679;28;20515;-85
2022/06/08 05:10:50;;;;;;;3.60;1.67;;;11.40;99.90;;;;;;4992612;28;20042;-87
2022/06/08 05:13:17;;;;;;;3.65;2.15;;;11.50;99.90;;;;;;4992477;28;20078;-86
2022/06/08 05:15:44;;;;;;;4.32;2.30;;;11.60;99.90;;;;;;4992844;28;20092;-85
2022/06/08 05:18:12;;;;;;;5.50;2.50;;;11.80;99.90;;;;;;4991546;28;20396;-86
2022/06/08 05:20:41;;;;;;;4.47;2.50;;;12.00;99.90;;;;;;4991794;28;20046;-85
2022/06/08 05:23:11;;;;;;;3.30;1.88;;;12.20;99.90;;;;;;4992705;28;20413;-86
2022/06/08 05:25:39;;;;;;;3.92;2.22;;;12.80;99.90;;;;;;4992725;28;20392;-86
2022/06/08 05:28:07;;;;;;;4.18;2.33;;;12.50;99.90;;;;;;4994405;28;20038;-86
2022/06/08 05:30:33;;;;;;;4.68;3.05;;;12.70;99.90;;;;;;4994926;28;20112;-86
2022/06/08 05:33:03;;;;;;;6.40;2.70;;;12.80;99.90;;;;;;4994832;28;20915;-87
2022/06/08 05:35:30;;;;;;;4.95;2.10;;;12.80;99.90;;;;;;4994883;28;20042;-85
2022/06/08 05:37:56;;;;;;;4.38;2.15;;;12.90;99.90;;;;;;4994987;28;20073;-86
2022/06/08 05:40:23;;;;;;;2.75;2.25;;;12.90;99.90;;;;;;4996080;28;20057;-87
2022/06/08 05:42:50;;;;;;;6.60;3.33;;;13.30;99.90;;;;;;4978115;28;20042;-87
2022/06/08 05:45:24;;;;;;;4.88;2.83;;;13.00;99.90;;;;;;4995419;28;20045;-86
2022/06/08 05:47:50;;;;;;;4.43;2.38;;;13.10;99.90;;;;;;4994813;28;20077;-86
2022/06/08 05:50:22;;;;;;;6.45;3.15;;;13.10;99.90;;;;;;4994904;28;20484;-87
2022/06/08 05:52:48;;;;;;;4.00;2.30;;;13.20;99.90;;;;;;4977865;28;20062;-87
2022/06/08 05:55:17;;;;;;;6.35;2.58;;;13.50;99.90;;;;;;4994369;28;20050;-87
2022/06/08 05:57:43;;;;;;;5.30;2.63;;;13.30;99.90;;;;;;4994522;28;20046;-87
2022/06/08 06:00:26;;;;;;;5.00;2.80;;;13.40;99.90;;;;;;4995020;28;20404;-87
2022/06/08 06:02:52;;;;;;;4.97;2.88;;;13.30;99.90;;;;;;4995783;28;20101;-87
2022/06/08 06:05:26;;;;;;;4.93;2.38;;;13.70;99.90;;;;;;4988863;23;20097;-89
2022/06/08 06:07:55;;;;;;;4.22;2.50;;;13.60;99.90;;;;;;4975865;28;20055;-86
2022/06/08 06:10:21;;;;;;;4.35;2.50;;;13.70;99.90;;;;;;5026435;23;20061;-84
2022/06/08 06:21:03;;;;;;;4.22;2.38;;;13.80;99.90;;;;;;4999828;28;20044;-85
2022/06/08 06:23:29;;;;;;;5.30;2.88;;;13.90;99.90;;;;;;5004778;28;20052;-84
2022/06/08 06:25:56;;;;;;;4.63;2.58;;;14.10;99.90;;;;;;4994878;28;20053;-83
2022/06/08 06:28:22;;;;;;;3.92;2.13;;;14.50;99.90;;;;;;5001045;28;20077;-85
2022/06/08 06:30:48;;;;;;;5.13;2.72;;;14.40;99.90;;;;;;5013383;28;20137;-86
2022/06/08 06:33:15;;;;;;;5.20;2.95;;;14.50;99.90;;;;;;5013084;28;20112;-87
2022/06/08 06:35:41;;;;;;;3.75;2.45;;;14.70;99.90;;;;;;5012874;28;20084;-85
2022/06/08 06:38:09;;;;;;;5.18;3.20;;;14.90;99.90;;;;;;5012932;28;20038;-84
2022/06/08 06:40:36;;;;;;;4.28;2.22;;;15.10;99.90;;;;;;5014881;28;20127;-86
2022/06/08 06:43:02;;;;;;;6.15;2.70;;;15.20;99.90;;;;;;4990303;28;20092;-84
2022/06/08 06:45:29;;;;;;;5.32;2.70;;;15.30;99.90;;;;;;4994264;28;20046;-85
2022/06/08 06:47:54;;;;;;;4.20;2.60;;;15.40;99.90;;;;;;4995467;28;20053;-85
2022/06/08 06:50:21;;;;;;;3.50;2.08;;;15.40;99.90;;;;;;4993489;28;20400;-85
2022/06/08 06:52:49;;;;;;;3.10;1.90;;;15.50;99.90;;;;;;4997593;28;20105;-86
2022/06/08 06:55:27;;;;;;;4.90;3.42;;;15.70;99.90;;;;;;5000491;28;20088;-86
2022/06/08 06:57:54;;;;;;;7.47;3.40;;;15.90;99.90;;;;;;4992689;28;20111;-85
2022/06/08 07:00:20;;;;;;;4.72;2.75;;;16.00;99.90;;;;;;4987116;28;20060;-85
2022/06/08 07:02:46;;;;;;;5.57;2.47;;;16.10;99.90;;;;;;5012830;28;20038;-86
2022/06/08 07:05:21;;;;;;;6.82;2.95;;;16.30;99.90;;;;;;4993041;28;20054;-89
2022/06/08 07:07:47;;;;;;;3.55;2.28;;;16.40;99.90;;;;;;5015455;23;20057;-82
2022/06/08 07:10:14;;;;;;;5.10;2.55;;;16.50;99.90;;;;;;4993049;28;20381;-82
2022/06/08 07:12:40;;;;;;;6.00;2.92;;;16.50;99.90;;;;;;4975884;28;20050;-81
2022/06/08 07:15:07;;;;;;;4.82;2.70;;;16.60;99.90;;;;;;4973518;28;20047;-82
2022/06/08 07:17:32;;;;;;;5.22;2.97;;;16.80;99.90;;;;;;4974280;28;20486;-83
2022/06/08 07:19:58;;;;;;;4.32;2.45;;;16.90;99.90;;;;;;4992692;28;20062;-82
2022/06/08 07:22:24;;;;;;;4.53;2.67;;;17.00;99.90;;;;;;4994022;28;20396;-83
2022/06/08 07:24:52;;;;;;;4.57;2.35;;;17.10;99.90;;;;;;4992997;28;20077;-83
2022/06/08 07:27:22;;;;;;;5.20;2.75;;;17.20;99.90;;;;;;4993654;28;20133;-83
2022/06/08 07:29:49;;;;;;;4.30;2.42;;;17.30;99.90;;;;;;4994138;28;20046;-83
2022/06/08 07:32:15;;;;;;;4.43;2.60;;;17.50;99.90;;;;;;4993530;28;20046;-83
2022/06/08 07:34:43;;;;;;;4.30;2.80;;;17.80;99.90;;;;;;4993755;28;20412;-86
2022/06/08 07:37:09;;;;;;;4.90;2.03;;;18.00;99.90;;;;;;4993967;28;20054;-83
2022/06/08 07:39:35;;;;;;;4.22;2.63;;;18.20;99.90;;;;;;4992843;28;20061;-83
2022/06/08 07:42:02;;;;;;;5.93;2.42;;;18.30;99.90;;;;;;4993418;28;20457;-83
2022/06/08 07:44:28;;;;;;;4.07;1.98;;;18.40;99.90;;;;;;4993399;28;20050;-85
2022/06/08 07:46:54;;;;;;;4.75;2.97;;;18.60;99.90;;;;;;4993570;28;20046;-84
2022/06/08 07:49:37;;;;;;;4.30;2.38;;;18.70;99.90;;;;;;4992846;28;20042;-85
2022/06/08 07:52:16;;;;;;;5.05;2.33;;;18.80;99.90;;;;;;4992980;28;20054;-83
2022/06/08 07:54:43;;;;;;;6.93;3.22;;;18.80;99.90;;;;;;4994189;28;20057;-88
2022/06/08 07:57:16;;;;;;;4.32;2.30;;;18.90;99.90;;;;;;4982045;28;20066;-86
2022/06/08 07:59:41;;;;;;;4.80;2.92;;;18.90;99.90;;;;;;4964756;28;20060;-85
2022/06/08 08:02:08;;;;;;;3.50;1.92;;;18.90;99.90;;;;;;4985028;28;20082;-86
2022/06/08 08:04:35;;;;;;;4.53;1.83;;;18.90;99.90;;;;;;4973407;28;20053;-88
2022/06/08 08:07:01;;;;;;;5.40;2.38;;;18.80;99.90;;;;;;4981526;28;20109;-88
2022/06/08 08:09:27;;;;;;;3.92;2.33;;;18.70;99.90;;;;;;4976297;28;20489;-88
2022/06/08 08:11:54;;;;;;;2.88;1.85;;;18.60;99.90;;;;;;4993178;28;20051;-88
2022/06/08 08:14:22;;;;;;;2.75;1.50;;;18.50;99.90;;;;;;4992230;28;20042;-87
2022/06/08 08:17:06;;;;;;;4.00;1.73;;;18.50;99.90;;;;;;4994081;28;20086;-86
2022/06/08 08:19:42;;;;;;;3.25;1.48;;;18.50;99.90;;;;;;4996391;23;20058;-87
2022/06/08 08:22:14;;;;;;;4.50;1.92;;;18.50;99.90;;;;;;5008359;28;20081;-88
2022/06/08 08:25:52;;;;;;;;;;;;;;;;;;;;;
2022/06/08 08:31:44;;;;;;;2.78;1.20;;;18.90;99.90;;;;;;4898252;29;20084;-87
2022/06/08 08:34:12;;;;;;;5.03;1.40;;;19.10;99.90;;;;;;4914062;29;20095;-88
2022/06/08 08:36:38;;;;;;;3.20;1.30;;;19.20;99.90;;;;;;4913480;29;20049;-88
2022/06/08 08:39:11;;;;;;;1.88;1.23;;;19.20;99.90;;;;;;4913378;29;20115;-88
2022/06/08 08:48:29;;;;;;;6.25;1.48;;;19.50;99.90;;;;;;4914115;29;20051;-88
2022/06/08 08:51:25;;;;;;;2.30;0.70;;;19.70;99.90;;;;;;4913994;29;20047;-87
2022/06/08 08:54:17;;;;;;;2.08;1.23;;;19.70;99.90;;;;;;4898361;29;20040;-87
2022/06/08 08:56:42;;;;;;;2.95;0.90;;;19.90;99.90;;;;;;4915595;29;20132;-88
2022/06/08 08:59:22;;;;;;;1.33;0.73;;;20.00;99.90;;;;;;4900778;29;20550;-88
2022/06/08 09:01:52;;;;;;;1.17;0.73;;;20.00;99.90;;;;;;4918188;29;20048;-87
2022/06/08 09:04:33;;;;;;;1.35;0.70;;;20.10;99.90;;;;;;4906174;29;20055;-87
2022/06/08 09:07:11;;;;;;;4.22;0.80;;;20.20;99.90;;;;;;4935286;29;20098;-86
2022/06/08 09:09:38;;;;;;;3.67;0.95;;;20.30;99.90;;;;;;4966823;28;20055;-87
2022/06/08 09:12:04;;;;;;;1.48;0.60;;;20.40;99.90;;;;;;4976010;28;20050;-88
2022/06/08 09:14:57;;;;;;;2.33;0.80;;;20.40;99.90;;;;;;4976058;28;20386;-86
2022/06/08 09:17:37;;;;;;;1.15;0.82;;;20.60;99.90;;;;;;4975712;28;20086;-88
2022/06/08 09:20:23;;;;;;;1.85;0.40;;;20.70;99.90;;;;;;4991862;28;20398;-89
2022/06/08 09:22:53;;;;;;;2.35;0.52;;;20.90;99.90;;;;;;4975793;28;20049;-85
2022/06/08 09:25:22;;;;;;;1.98;0.60;;;21.10;99.90;;;;;;4975576;28;20497;-87
2022/06/08 09:27:50;;;;;;;1.60;0.50;;;21.30;99.90;;;;;;4976654;28;20489;-87
2022/06/08 09:30:24;;;;;;;1.38;0.43;;;21.30;99.90;;;;;;4976768;28;20114;-87
2022/06/08 09:32:52;;;;;;;0.98;0.38;;;21.10;99.90;;;;;;4975571;28;20062;-87
2022/06/08 09:35:34;;;;;;;2.08;0.40;;;21.00;99.90;;;;;;4976823;28;20516;-86
2022/06/08 09:38:11;;;;;;;1.35;0.52;;;21.00;99.90;;;;;;4991618;28;20482;-86
2022/06/08 09:40:54;;;;;;;1.60;0.30;;;21.00;99.90;;;;;;4975099;28;20051;-87
2022/06/08 09:43:56;;;;;;;0.47;0.30;;;20.90;99.90;;;;;;4991909;28;20164;-86
2022/06/08 09:52:45;;;;;;;4.47;0.40;;;20.90;99.90;;;;;;4996695;28;20041;-86
2022/06/08 09:55:24;;;;;;;1.27;0.30;;;21.00;99.90;;;;;;5013187;28;20116;-85
2022/06/08 09:57:58;;;;;;;0.70;0.40;;;21.00;99.90;;;;;;5013033;28;20053;-87
2022/06/08 10:01:01;;;;;;;1.00;0.47;;;20.90;99.90;;;;;;4996653;28;20045;-88
2022/06/08 10:04:05;;;;;;;0.88;0.30;;;21.10;99.90;;;;;;4996664;28;20064;-87
2022/06/08 10:06:46;;;;;;;0.63;0.30;;;21.10;99.90;;;;;;4996605;28;20053;-87
2022/06/08 10:09:23;;;;;;;0.30;0.30;;;21.40;99.90;;;;;;5012903;28;20065;-87
2022/06/08 10:11:59;;;;;;;1.67;0.30;;;21.70;99.90;;;;;;4980348;28;20417;-86
2022/06/08 10:14:30;;;;;;;0.57;0.40;;;21.80;99.90;;;;;;5012857;28;20120;-88
2022/06/08 10:17:03;;;;;;;2.70;0.38;;;21.90;99.90;;;;;;4996398;28;20085;-87
2022/06/08 10:20:07;;;;;;;1.02;0.40;;;22.00;99.90;;;;;;5010344;28;20051;-87
2022/06/08 10:29:07;;;;;;;0.35;0.30;;;22.20;99.90;;;;;;5246009;23;20412;-86
2022/06/08 10:35:41;;;;;;;0.73;0.30;;;22.00;99.90;;;;;;5068216;23;20052;-84
2022/06/08 10:38:17;;;;;;;1.33;0.38;;;21.90;99.90;;;;;;5031434;28;20045;-83
2022/06/08 10:40:55;;;;;;;0.50;0.40;;;21.80;99.90;;;;;;5053785;28;20558;-84
2022/06/08 10:47:18;;;;;;;2.33;0.45;;;21.60;99.90;;;;;;5051902;28;20087;-84
2022/06/08 10:49:44;;;;;;;1.88;0.47;;;21.50;99.90;;;;;;5035902;28;20045;-83
2022/06/08 10:52:18;;;;;;;0.98;0.40;;;21.30;99.90;;;;;;5035908;28;20045;-83
2022/06/08 10:54:54;;;;;;;0.50;0.40;;;21.30;99.90;;;;;;5036192;28;20479;-83
2022/06/08 10:57:42;;;;;;;;;;;21.30;99.90;;;;;;5019851;28;20041;-83
2022/06/08 11:00:20;;;;;;;0.60;0.50;;;21.40;99.90;;;;;;5036366;28;19921;-84
2022/06/08 11:03:02;;;;;;;0.65;0.40;;;21.60;99.90;;;;;;5036217;28;20128;-85
2022/06/08 11:05:40;;;;;;;0.75;0.43;;;21.70;99.90;;;;;;5034964;28;20049;-83
2022/06/08 11:08:12;;;;;;;0.80;0.40;;;21.80;99.90;;;;;;5035609;28;20049;-86
2022/06/08 11:10:44;;;;;;;0.65;0.40;;;22.00;99.90;;;;;;5033716;28;20492;-86
2022/06/08 11:13:21;;;;;;;0.47;0.35;;;22.20;99.90;;;;;;5030403;28;20407;-85
2022/06/08 11:15:52;;;;;;;1.75;0.45;;;22.30;99.90;;;;;;5035939;28;20471;-85
2022/06/08 11:18:42;;;;;;;0.40;0.40;;;22.40;99.90;;;;;;5035707;28;20051;-86
2022/06/08 11:21:14;;;;;;;1.33;0.70;;;22.40;99.90;;;;;;5035836;28;20044;-87
2022/06/08 11:23:42;;;;;;;2.08;0.47;;;22.50;99.90;;;;;;5035316;28;20049;-86
2022/06/08 11:26:19;;;;;;;2.15;0.70;;;22.50;99.90;;;;;;5054004;28;20045;-85
2022/06/08 11:28:48;;;;;;;1.02;0.70;;;22.50;99.90;;;;;;5035068;28;20482;-85
2022/06/08 11:31:52;;;;;;;2.05;0.68;;;22.30;99.90;;;;;;5038851;28;20078;-86
2022/06/08 11:35:01;;;;;;;1.38;0.60;;;22.20;99.90;;;;;;4975325;28;20453;-88
2022/06/08 11:37:51;;;;;;;;;;;22.00;99.90;;;;;;4965126;28;20055;-87
2022/06/08 11:40:30;;;;;;;3.88;0.60;;;21.70;99.90;;;;;;4962577;28;20395;-87
2022/06/08 11:43:24;;;;;;;1.67;0.60;;;21.60;99.90;;;;;;4954879;28;20129;-86
2022/06/08 11:45:55;;;;;;;2.28;0.90;;;21.40;99.90;;;;;;4956964;28;20054;-85
2022/06/08 11:48:27;;;;;;;3.30;1.00;;;21.30;99.90;;;;;;4956051;28;20043;-85
2022/06/08 11:51:03;;;;;;;3.00;0.90;;;21.00;99.90;;;;;;4954930;28;20117;-86
2022/06/08 11:53:35;;;;;;;2.65;1.10;;;21.30;99.90;;;;;;4972124;28;20118;-86
2022/06/08 11:56:16;;;;;;;2.20;0.88;;;20.60;99.90;;;;;;4955483;28;20042;-85
2022/06/08 11:58:59;;;;;;;1.00;0.70;;;20.40;99.90;;;;;;4965349;28;20047;-85
2022/06/08 12:01:31;;;;;;;1.67;0.90;;;20.20;99.90;;;;;;4960571;28;20545;-84
2022/06/08 12:04:05;;;;;;;;;;;20.10;99.90;;;;;;4971580;28;20046;-84
2022/06/08 12:06:37;;;;;;;3.30;0.82;;;19.90;99.90;;;;;;4955188;28;19929;-84
2022/06/08 12:09:22;;;;;;;1.33;0.50;;;19.80;99.90;;;;;;4943290;28;20061;-86
2022/06/08 12:12:05;;;;;;;1.50;0.55;;;19.60;99.90;;;;;;4996659;28;20088;-86
2022/06/08 12:14:35;;;;;;;2.97;0.90;;;19.40;99.90;;;;;;5016351;28;20049;-83
2022/06/08 12:17:33;;;;;;;1.80;0.80;;;19.30;99.90;;;;;;5034529;28;20056;-83
2022/06/08 12:20:02;;;;;;;1.45;0.90;;;19.30;99.90;;;;;;5034429;28;20048;-84
2022/06/08 12:22:33;;;;;;;1.35;1.00;;;19.30;99.90;;;;;;5033748;28;20041;-84
2022/06/08 12:25:21;;;;;;;1.95;0.90;;;19.30;99.90;;;;;;5052276;28;20056;-84
2022/06/08 12:28:13;;;;;;;1.90;0.85;;;19.30;99.90;;;;;;5034722;28;20080;-84
2022/06/08 12:30:47;;;;;;;2.97;0.93;;;19.30;99.90;;;;;;5051843;28;20057;-83
2022/06/08 12:33:18;;;;;;;2.17;1.02;;;19.20;99.90;;;;;;5052537;28;20053;-84
2022/06/08 12:35:53;;;;;;;1.25;0.90;;;19.20;99.90;;;;;;5018362;28;20053;-84
2022/06/08 12:38:26;;;;;;;2.20;0.80;;;19.20;99.90;;;;;;5036515;28;20510;-84
2022/06/08 12:41:22;;;;;;;2.38;1.00;;;19.30;99.90;;;;;;5017981;28;20033;-84
2022/06/08 12:44:03;;;;;;;1.88;0.98;;;19.40;99.90;;;;;;5036651;28;20045;-84
2022/06/08 12:46:31;;;;;;;5.13;1.00;;;19.40;99.90;;;;;;5036606;28;20068;-84
2022/06/08 12:48:59;;;;;;;1.80;0.90;;;19.50;99.90;;;;;;5018893;28;20053;-84
2022/06/08 12:51:35;;;;;;;1.10;0.90;;;19.70;99.90;;;;;;5036221;28;20084;-84
2022/06/08 12:54:22;;;;;;;1.98;0.80;;;19.70;99.90;;;;;;5018345;28;20053;-84
2022/06/08 12:56:51;;;;;;;1.35;0.90;;;19.60;99.90;;;;;;5019147;28;20388;-84
2022/06/08 12:59:18;;;;;;;2.47;1.08;;;19.50;99.90;;;;;;5036187;28;20041;-84
2022/06/08 13:01:44;;;;;;;3.90;1.25;;;19.30;99.90;;;;;;5001951;28;20084;-84
2022/06/08 13:04:22;;;;;;;4.18;0.80;;;19.20;99.90;;;;;;5018444;28;20077;-83
2022/06/08 13:06:48;;;;;;;1.48;0.60;;;18.90;99.90;;;;;;5018643;28;20071;-84
2022/06/08 13:09:17;;;;;;;1.52;0.60;;;18.80;99.90;;;;;;5036303;28;20127;-83
2022/06/08 13:11:49;;;;;;;2.90;1.00;;;18.60;99.90;;;;;;5036003;28;20045;-83
2022/06/08 13:14:18;;;;;;;1.98;0.60;;;18.50;99.90;;;;;;5018583;28;20057;-84
2022/06/08 13:16:44;;;;;;;1.90;0.50;;;18.50;99.90;;;;;;5035873;28;20045;-85
2022/06/08 13:19:13;;;;;;;1.77;0.60;;;18.40;99.90;;;;;;5017890;28;20049;-84
2022/06/08 13:21:41;;;;;;;2.25;0.55;;;18.40;99.90;;;;;;5018433;28;20596;-84
2022/06/08 13:24:07;;;;;;;2.42;0.50;;;18.20;99.90;;;;;;5017897;28;20049;-84
2022/06/08 13:26:34;;;;;;;2.50;0.73;;;18.10;99.90;;;;;;5018223;28;20050;-84
2022/06/08 13:29:01;;;;;;;2.10;0.65;;;18.20;99.90;;;;;;5035568;28;20068;-84
2022/06/08 13:31:28;;;;;;;1.52;0.43;;;18.10;99.90;;;;;;5018035;28;20496;-85
2022/06/08 13:33:56;;;;;;;2.90;0.73;;;17.90;99.90;;;;;;5006501;28;20110;-84
2022/06/08 13:36:44;;;;;;;2.15;0.80;;;17.80;99.90;;;;;;5055313;28;20053;-84
2022/06/08 13:39:11;;;;;;;2.95;0.80;;;17.80;99.90;;;;;;4938937;29;20494;-84
2022/06/08 13:41:40;;;;;;;1.85;0.93;;;17.60;99.90;;;;;;4939123;29;20059;-84
2022/06/08 13:44:24;;;;;;;3.25;0.90;;;17.60;99.90;;;;;;4954960;29;20058;-84
2022/06/08 13:46:52;;;;;;;3.33;0.80;;;17.50;99.90;;;;;;4954474;28;20051;-84
2022/06/08 13:49:18;;;;;;;1.50;0.80;;;17.40;99.90;;;;;;4938986;29;20169;-84
2022/06/08 13:51:44;;;;;;;2.13;0.90;;;17.40;99.90;;;;;;4939701;29;20043;-84
2022/06/08 13:54:23;;;;;;;1.88;0.90;;;17.30;99.90;;;;;;4922774;29;20391;-84
2022/06/08 13:56:50;;;;;;;1.52;0.93;;;17.30;99.90;;;;;;4954701;29;20134;-84
2022/06/08 13:59:16;;;;;;;2.05;1.13;;;17.30;99.90;;;;;;4954777;29;20044;-84
2022/06/08 14:01:42;;;;;;;1.67;1.05;;;17.30;99.90;;;;;;4954765;29;20494;-83
2022/06/08 14:04:16;;;;;;;4.90;1.00;;;17.30;99.90;;;;;;4954794;29;20110;-84
2022/06/08 14:14:55;;;;;;;2.13;1.30;;;17.40;99.90;;;;;;4954588;29;20043;-84